sensor_id;sensor_type;location;lat;lon;timestamp;P1;durP1;ratioP1;P2;durP2;ratioP2
41115;SDS011;26861;51.824;4.682;2023-06-22T00:01:59;0.70;;;0.60;;
41115;SDS011;26861;51.824;4.682;2023-06-22T00:04:25;0.65;;;0.60;;
41115;SDS011;26861;51.824;4.682;2023-06-22T00:06:51;0.77;;;0.63;;
41115;SDS011;26861;51.824;4.682;2023-06-22T00:09:17;0.82;;;0.60;;
41115;SDS011;26861;51.824;4.682;2023-06-22T00:11:43;0.70;;;0.70;;
41115;SDS011;26861;51.824;4.682;2023-06-22T00:14:08;0.70;;;0.43;;
41115;SDS011;26861;51.824;4.682;2023-06-22T00:16:34;0.63;;;0.63;;
41115;SDS011;26861;51.824;4.682;2023-06-22T00:18:59;0.90;;;0.55;;
41115;SDS011;26861;51.824;4.682;2023-06-22T00:21:27;0.70;;;0.60;;
41115;SDS011;26861;51.824;4.682;2023-06-22T00:23:52;0.50;;;0.50;;
41115;SDS011;26861;51.824;4.682;2023-06-22T00:26:18;0.80;;;0.70;;
41115;SDS011;26861;51.824;4.682;2023-06-22T00:28:45;0.93;;;0.85;;
41115;SDS011;26861;51.824;4.682;2023-06-22T00:31:11;0.75;;;0.60;;
41115;SDS011;26861;51.824;4.682;2023-06-22T00:33:37;0.73;;;0.70;;
41115;SDS011;26861;51.824;4.682;2023-06-22T00:36:03;0.93;;;0.63;;
41115;SDS011;26861;51.824;4.682;2023-06-22T00:38:29;0.63;;;0.55;;
41115;SDS011;26861;51.824;4.682;2023-06-22T00:40:54;0.60;;;0.60;;
41115;SDS011;26861;51.824;4.682;2023-06-22T00:43:20;1.33;;;0.90;;
41115;SDS011;26861;51.824;4.682;2023-06-22T00:45:46;0.70;;;0.68;;
41115;SDS011;26861;51.824;4.682;2023-06-22T00:48:12;0.82;;;0.80;;
41115;SDS011;26861;51.824;4.682;2023-06-22T00:50:39;1.17;;;0.75;;
41115;SDS011;26861;51.824;4.682;2023-06-22T00:53:06;4.40;;;0.77;;
41115;SDS011;26861;51.824;4.682;2023-06-22T00:55:52;0.70;;;0.70;;
41115;SDS011;26861;51.824;4.682;2023-06-22T00:58:18;0.75;;;0.70;;
41115;SDS011;26861;51.824;4.682;2023-06-22T01:00:46;1.42;;;0.80;;
41115;SDS011;26861;51.824;4.682;2023-06-22T01:03:13;0.75;;;0.70;;
41115;SDS011;26861;51.824;4.682;2023-06-22T01:05:39;1.02;;;0.52;;
41115;SDS011;26861;51.824;4.682;2023-06-22T01:10:45;0.95;;;0.90;;
41115;SDS011;26861;51.824;4.682;2023-06-22T01:13:24;0.70;;;0.63;;
41115;SDS011;26861;51.824;4.682;2023-06-22T01:16:14;0.75;;;0.75;;
41115;SDS011;26861;51.824;4.682;2023-06-22T01:18:41;1.00;;;0.80;;
41115;SDS011;26861;51.824;4.682;2023-06-22T01:21:08;0.77;;;0.77;;
41115;SDS011;26861;51.824;4.682;2023-06-22T01:26:43;0.82;;;0.80;;
41115;SDS011;26861;51.824;4.682;2023-06-22T01:29:30;0.60;;;0.60;;
41115;SDS011;26861;51.824;4.682;2023-06-22T01:31:58;0.90;;;0.90;;
41115;SDS011;26861;51.824;4.682;2023-06-22T01:34:25;0.60;;;0.60;;
41115;SDS011;26861;51.824;4.682;2023-06-22T01:36:52;1.15;;;1.02;;
41115;SDS011;26861;51.824;4.682;2023-06-22T01:39:19;0.90;;;0.90;;
41115;SDS011;26861;51.824;4.682;2023-06-22T01:41:47;0.60;;;0.60;;
41115;SDS011;26861;51.824;4.682;2023-06-22T01:44:14;0.60;;;0.60;;
41115;SDS011;26861;51.824;4.682;2023-06-22T01:46:40;1.70;;;0.85;;
41115;SDS011;26861;51.824;4.682;2023-06-22T01:49:07;0.65;;;0.57;;
41115;SDS011;26861;51.824;4.682;2023-06-22T01:51:34;1.02;;;0.93;;
41115;SDS011;26861;51.824;4.682;2023-06-22T01:54:01;0.95;;;0.95;;
41115;SDS011;26861;51.824;4.682;2023-06-22T01:56:27;1.00;;;0.90;;
41115;SDS011;26861;51.824;4.682;2023-06-22T01:59:04;0.80;;;0.80;;
41115;SDS011;26861;51.824;4.682;2023-06-22T02:01:36;1.60;;;1.00;;
41115;SDS011;26861;51.824;4.682;2023-06-22T02:04:26;1.02;;;0.90;;
41115;SDS011;26861;51.824;4.682;2023-06-22T02:06:58;1.17;;;0.90;;
41115;SDS011;26861;51.824;4.682;2023-06-22T02:09:25;0.90;;;0.90;;
41115;SDS011;26861;51.824;4.682;2023-06-22T02:11:54;1.00;;;1.00;;
41115;SDS011;26861;51.824;4.682;2023-06-22T02:14:22;0.70;;;0.70;;
41115;SDS011;26861;51.824;4.682;2023-06-22T02:16:49;1.02;;;0.70;;
41115;SDS011;26861;51.824;4.682;2023-06-22T02:19:16;1.25;;;0.90;;
41115;SDS011;26861;51.824;4.682;2023-06-22T02:21:43;0.90;;;0.90;;
41115;SDS011;26861;51.824;4.682;2023-06-22T02:24:10;0.85;;;0.82;;
41115;SDS011;26861;51.824;4.682;2023-06-22T02:26:35;1.10;;;1.00;;
41115;SDS011;26861;51.824;4.682;2023-06-22T02:29:03;1.10;;;0.70;;
41115;SDS011;26861;51.824;4.682;2023-06-22T02:31:29;1.00;;;0.80;;
41115;SDS011;26861;51.824;4.682;2023-06-22T02:33:57;0.90;;;0.90;;
41115;SDS011;26861;51.824;4.682;2023-06-22T02:36:24;0.82;;;0.82;;
41115;SDS011;26861;51.824;4.682;2023-06-22T02:38:52;1.15;;;1.05;;
41115;SDS011;26861;51.824;4.682;2023-06-22T02:41:19;1.20;;;0.85;;
41115;SDS011;26861;51.824;4.682;2023-06-22T02:43:46;1.00;;;0.90;;
41115;SDS011;26861;51.824;4.682;2023-06-22T02:46:12;0.95;;;0.88;;
41115;SDS011;26861;51.824;4.682;2023-06-22T02:48:39;0.90;;;0.80;;
41115;SDS011;26861;51.824;4.682;2023-06-22T02:51:06;1.00;;;0.77;;
41115;SDS011;26861;51.824;4.682;2023-06-22T02:53:32;0.80;;;0.80;;
41115;SDS011;26861;51.824;4.682;2023-06-22T02:55:59;0.90;;;0.80;;
41115;SDS011;26861;51.824;4.682;2023-06-22T02:58:32;0.95;;;0.95;;
41115;SDS011;26861;51.824;4.682;2023-06-22T03:01:04;1.00;;;1.00;;
41115;SDS011;26861;51.824;4.682;2023-06-22T03:03:31;1.17;;;0.90;;
41115;SDS011;26861;51.824;4.682;2023-06-22T03:05:56;0.95;;;0.68;;
41115;SDS011;26861;51.824;4.682;2023-06-22T03:08:22;1.13;;;0.85;;
41115;SDS011;26861;51.824;4.682;2023-06-22T03:10:47;1.02;;;0.80;;
41115;SDS011;26861;51.824;4.682;2023-06-22T03:13:13;1.48;;;1.00;;
41115;SDS011;26861;51.824;4.682;2023-06-22T03:15:39;0.88;;;0.88;;
41115;SDS011;26861;51.824;4.682;2023-06-22T03:18:04;0.98;;;0.93;;
41115;SDS011;26861;51.824;4.682;2023-06-22T03:20:30;1.02;;;0.90;;
41115;SDS011;26861;51.824;4.682;2023-06-22T03:22:58;0.75;;;0.75;;
41115;SDS011;26861;51.824;4.682;2023-06-22T03:25:24;1.05;;;0.80;;
41115;SDS011;26861;51.824;4.682;2023-06-22T03:27:49;0.60;;;0.60;;
41115;SDS011;26861;51.824;4.682;2023-06-22T03:30:15;1.95;;;0.80;;
41115;SDS011;26861;51.824;4.682;2023-06-22T03:32:41;1.70;;;1.00;;
41115;SDS011;26861;51.824;4.682;2023-06-22T03:35:08;0.70;;;0.70;;
41115;SDS011;26861;51.824;4.682;2023-06-22T03:37:34;1.80;;;1.00;;
41115;SDS011;26861;51.824;4.682;2023-06-22T03:39:59;0.82;;;0.80;;
41115;SDS011;26861;51.824;4.682;2023-06-22T03:42:25;0.80;;;0.80;;
41115;SDS011;26861;51.824;4.682;2023-06-22T03:44:51;1.10;;;0.90;;
41115;SDS011;26861;51.824;4.682;2023-06-22T03:47:17;1.00;;;0.95;;
41115;SDS011;26861;51.824;4.682;2023-06-22T03:49:43;1.15;;;1.05;;
41115;SDS011;26861;51.824;4.682;2023-06-22T03:52:09;0.70;;;0.60;;
41115;SDS011;26861;51.824;4.682;2023-06-22T03:54:36;1.10;;;1.00;;
41115;SDS011;26861;51.824;4.682;2023-06-22T03:57:02;1.15;;;1.13;;
41115;SDS011;26861;51.824;4.682;2023-06-22T03:59:28;1.20;;;1.10;;
41115;SDS011;26861;51.824;4.682;2023-06-22T04:01:54;1.00;;;1.00;;
41115;SDS011;26861;51.824;4.682;2023-06-22T04:04:20;1.30;;;1.10;;
41115;SDS011;26861;51.824;4.682;2023-06-22T04:06:46;1.27;;;1.25;;
41115;SDS011;26861;51.824;4.682;2023-06-22T04:09:12;1.73;;;1.63;;
41115;SDS011;26861;51.824;4.682;2023-06-22T04:11:39;1.60;;;1.50;;
41115;SDS011;26861;51.824;4.682;2023-06-22T04:14:05;1.67;;;1.58;;
41115;SDS011;26861;51.824;4.682;2023-06-22T04:16:30;1.75;;;1.65;;
41115;SDS011;26861;51.824;4.682;2023-06-22T04:18:56;1.63;;;1.52;;
41115;SDS011;26861;51.824;4.682;2023-06-22T04:21:21;1.38;;;1.38;;
41115;SDS011;26861;51.824;4.682;2023-06-22T04:23:47;1.70;;;1.60;;
41115;SDS011;26861;51.824;4.682;2023-06-22T04:26:13;1.95;;;1.85;;
41115;SDS011;26861;51.824;4.682;2023-06-22T04:28:42;1.70;;;1.60;;
41115;SDS011;26861;51.824;4.682;2023-06-22T04:31:07;1.70;;;1.60;;
41115;SDS011;26861;51.824;4.682;2023-06-22T04:33:33;2.13;;;1.90;;
41115;SDS011;26861;51.824;4.682;2023-06-22T04:35:58;1.80;;;1.70;;
41115;SDS011;26861;51.824;4.682;2023-06-22T04:40:58;1.70;;;1.60;;
41115;SDS011;26861;51.824;4.682;2023-06-22T04:43:26;1.38;;;1.27;;
41115;SDS011;26861;51.824;4.682;2023-06-22T04:45:55;1.23;;;1.20;;
41115;SDS011;26861;51.824;4.682;2023-06-22T04:48:21;1.67;;;1.58;;
41115;SDS011;26861;51.824;4.682;2023-06-22T04:50:47;1.98;;;1.45;;
41115;SDS011;26861;51.824;4.682;2023-06-22T04:53:12;1.77;;;1.63;;
41115;SDS011;26861;51.824;4.682;2023-06-22T04:55:39;1.55;;;1.45;;
41115;SDS011;26861;51.824;4.682;2023-06-22T04:58:10;1.35;;;1.20;;
41115;SDS011;26861;51.824;4.682;2023-06-22T05:00:37;1.45;;;1.33;;
41115;SDS011;26861;51.824;4.682;2023-06-22T05:03:03;1.17;;;1.10;;
41115;SDS011;26861;51.824;4.682;2023-06-22T05:05:31;1.05;;;0.95;;
41115;SDS011;26861;51.824;4.682;2023-06-22T05:07:57;1.30;;;1.20;;
41115;SDS011;26861;51.824;4.682;2023-06-22T05:10:25;1.85;;;1.15;;
41115;SDS011;26861;51.824;4.682;2023-06-22T05:12:51;1.20;;;1.10;;
41115;SDS011;26861;51.824;4.682;2023-06-22T05:15:17;1.77;;;1.40;;
41115;SDS011;26861;51.824;4.682;2023-06-22T05:17:44;0.98;;;0.98;;
41115;SDS011;26861;51.824;4.682;2023-06-22T05:20:10;1.25;;;1.17;;
41115;SDS011;26861;51.824;4.682;2023-06-22T05:22:37;1.30;;;1.20;;
41115;SDS011;26861;51.824;4.682;2023-06-22T05:25:05;1.00;;;0.90;;
41115;SDS011;26861;51.824;4.682;2023-06-22T05:27:33;0.90;;;0.90;;
41115;SDS011;26861;51.824;4.682;2023-06-22T05:29:58;1.05;;;1.00;;
41115;SDS011;26861;51.824;4.682;2023-06-22T05:32:24;1.42;;;1.20;;
41115;SDS011;26861;51.824;4.682;2023-06-22T05:34:50;1.08;;;1.08;;
41115;SDS011;26861;51.824;4.682;2023-06-22T05:37:15;3.15;;;1.13;;
41115;SDS011;26861;51.824;4.682;2023-06-22T05:39:41;1.48;;;1.38;;
41115;SDS011;26861;51.824;4.682;2023-06-22T05:42:07;1.40;;;1.30;;
41115;SDS011;26861;51.824;4.682;2023-06-22T05:44:33;2.97;;;1.55;;
41115;SDS011;26861;51.824;4.682;2023-06-22T05:46:58;1.55;;;1.10;;
41115;SDS011;26861;51.824;4.682;2023-06-22T05:49:25;1.67;;;1.58;;
41115;SDS011;26861;51.824;4.682;2023-06-22T05:51:54;2.90;;;1.63;;
41115;SDS011;26861;51.824;4.682;2023-06-22T05:54:21;4.75;;;1.70;;
41115;SDS011;26861;51.824;4.682;2023-06-22T05:56:47;2.92;;;1.40;;
41115;SDS011;26861;51.824;4.682;2023-06-22T05:59:13;2.58;;;1.60;;
41115;SDS011;26861;51.824;4.682;2023-06-22T06:01:38;2.88;;;1.10;;
41115;SDS011;26861;51.824;4.682;2023-06-22T06:04:05;3.53;;;1.30;;
41115;SDS011;26861;51.824;4.682;2023-06-22T06:06:33;2.03;;;1.75;;
41115;SDS011;26861;51.824;4.682;2023-06-22T06:09:02;3.03;;;1.58;;
41115;SDS011;26861;51.824;4.682;2023-06-22T06:11:29;2.30;;;1.50;;
41115;SDS011;26861;51.824;4.682;2023-06-22T06:13:54;2.38;;;1.45;;
41115;SDS011;26861;51.824;4.682;2023-06-22T06:16:21;1.95;;;1.77;;
41115;SDS011;26861;51.824;4.682;2023-06-22T06:18:47;2.17;;;1.67;;
41115;SDS011;26861;51.824;4.682;2023-06-22T06:21:16;3.97;;;1.80;;
41115;SDS011;26861;51.824;4.682;2023-06-22T06:23:42;3.17;;;1.60;;
41115;SDS011;26861;51.824;4.682;2023-06-22T06:26:07;2.00;;;1.70;;
41115;SDS011;26861;51.824;4.682;2023-06-22T06:28:34;1.98;;;1.70;;
41115;SDS011;26861;51.824;4.682;2023-06-22T06:31:00;1.90;;;1.35;;
41115;SDS011;26861;51.824;4.682;2023-06-22T06:33:26;2.42;;;1.45;;
41115;SDS011;26861;51.824;4.682;2023-06-22T06:35:52;2.13;;;1.60;;
41115;SDS011;26861;51.824;4.682;2023-06-22T06:38:20;2.83;;;1.45;;
41115;SDS011;26861;51.824;4.682;2023-06-22T06:40:46;5.50;;;1.88;;
41115;SDS011;26861;51.824;4.682;2023-06-22T06:43:14;2.10;;;1.60;;
41115;SDS011;26861;51.824;4.682;2023-06-22T06:45:40;3.08;;;1.55;;
41115;SDS011;26861;51.824;4.682;2023-06-22T06:48:06;2.92;;;1.70;;
41115;SDS011;26861;51.824;4.682;2023-06-22T06:50:32;1.95;;;1.77;;
41115;SDS011;26861;51.824;4.682;2023-06-22T06:52:58;1.90;;;1.23;;
41115;SDS011;26861;51.824;4.682;2023-06-22T06:55:25;1.88;;;1.45;;
41115;SDS011;26861;51.824;4.682;2023-06-22T06:57:51;1.95;;;1.40;;
41115;SDS011;26861;51.824;4.682;2023-06-22T07:00:18;1.60;;;1.40;;
41115;SDS011;26861;51.824;4.682;2023-06-22T07:02:44;2.95;;;1.50;;
41115;SDS011;26861;51.824;4.682;2023-06-22T07:05:13;2.53;;;1.60;;
41115;SDS011;26861;51.824;4.682;2023-06-22T07:07:39;1.75;;;1.50;;
41115;SDS011;26861;51.824;4.682;2023-06-22T07:10:07;3.63;;;1.50;;
41115;SDS011;26861;51.824;4.682;2023-06-22T07:12:33;1.58;;;1.48;;
41115;SDS011;26861;51.824;4.682;2023-06-22T07:15:06;2.03;;;1.15;;
41115;SDS011;26861;51.824;4.682;2023-06-22T07:17:33;2.28;;;1.60;;
41115;SDS011;26861;51.824;4.682;2023-06-22T07:19:59;1.42;;;1.25;;
41115;SDS011;26861;51.824;4.682;2023-06-22T07:22:26;2.35;;;1.27;;
41115;SDS011;26861;51.824;4.682;2023-06-22T07:24:51;1.65;;;1.55;;
41115;SDS011;26861;51.824;4.682;2023-06-22T07:27:17;2.17;;;1.48;;
41115;SDS011;26861;51.824;4.682;2023-06-22T07:29:44;1.83;;;1.30;;
41115;SDS011;26861;51.824;4.682;2023-06-22T07:32:10;1.67;;;1.15;;
41115;SDS011;26861;51.824;4.682;2023-06-22T07:34:36;3.83;;;1.33;;
41115;SDS011;26861;51.824;4.682;2023-06-22T07:37:02;1.60;;;1.08;;
41115;SDS011;26861;51.824;4.682;2023-06-22T07:39:30;3.38;;;1.27;;
41115;SDS011;26861;51.824;4.682;2023-06-22T07:41:56;1.52;;;1.23;;
41115;SDS011;26861;51.824;4.682;2023-06-22T07:44:22;3.20;;;1.55;;
41115;SDS011;26861;51.824;4.682;2023-06-22T07:46:47;2.65;;;1.33;;
41115;SDS011;26861;51.824;4.682;2023-06-22T07:49:13;1.80;;;1.48;;
41115;SDS011;26861;51.824;4.682;2023-06-22T07:51:39;1.77;;;1.45;;
41115;SDS011;26861;51.824;4.682;2023-06-22T07:54:04;2.72;;;1.17;;
41115;SDS011;26861;51.824;4.682;2023-06-22T07:56:30;1.02;;;0.90;;
41115;SDS011;26861;51.824;4.682;2023-06-22T07:58:55;1.08;;;0.90;;
41115;SDS011;26861;51.824;4.682;2023-06-22T08:01:23;1.50;;;1.40;;
41115;SDS011;26861;51.824;4.682;2023-06-22T08:03:49;1.42;;;1.10;;
41115;SDS011;26861;51.824;4.682;2023-06-22T08:06:15;1.25;;;1.02;;
41115;SDS011;26861;51.824;4.682;2023-06-22T08:08:41;2.00;;;1.25;;
41115;SDS011;26861;51.824;4.682;2023-06-22T08:11:07;3.75;;;1.20;;
41115;SDS011;26861;51.824;4.682;2023-06-22T08:13:33;3.88;;;1.63;;
41115;SDS011;26861;51.824;4.682;2023-06-22T08:15:59;1.45;;;1.02;;
41115;SDS011;26861;51.824;4.682;2023-06-22T08:18:25;2.35;;;1.25;;
41115;SDS011;26861;51.824;4.682;2023-06-22T08:20:50;1.77;;;1.25;;
41115;SDS011;26861;51.824;4.682;2023-06-22T08:23:16;1.45;;;1.25;;
41115;SDS011;26861;51.824;4.682;2023-06-22T08:25:42;2.78;;;1.27;;
41115;SDS011;26861;51.824;4.682;2023-06-22T08:28:07;1.20;;;0.93;;
41115;SDS011;26861;51.824;4.682;2023-06-22T08:30:33;1.92;;;1.33;;
41115;SDS011;26861;51.824;4.682;2023-06-22T08:32:59;3.08;;;1.42;;
41115;SDS011;26861;51.824;4.682;2023-06-22T08:35:24;2.05;;;1.10;;
41115;SDS011;26861;51.824;4.682;2023-06-22T08:37:50;1.83;;;1.20;;
41115;SDS011;26861;51.824;4.682;2023-06-22T08:40:19;1.35;;;1.10;;
41115;SDS011;26861;51.824;4.682;2023-06-22T08:42:46;1.55;;;1.10;;
41115;SDS011;26861;51.824;4.682;2023-06-22T08:45:13;1.55;;;1.27;;
41115;SDS011;26861;51.824;4.682;2023-06-22T08:47:39;2.55;;;1.20;;
41115;SDS011;26861;51.824;4.682;2023-06-22T08:50:09;1.27;;;1.17;;
41115;SDS011;26861;51.824;4.682;2023-06-22T08:52:35;3.35;;;1.40;;
41115;SDS011;26861;51.824;4.682;2023-06-22T08:55:02;1.77;;;1.15;;
41115;SDS011;26861;51.824;4.682;2023-06-22T08:57:28;1.10;;;1.00;;
41115;SDS011;26861;51.824;4.682;2023-06-22T08:59:55;1.25;;;1.15;;
41115;SDS011;26861;51.824;4.682;2023-06-22T09:02:24;1.67;;;1.20;;
41115;SDS011;26861;51.824;4.682;2023-06-22T09:04:59;2.30;;;1.50;;
41115;SDS011;26861;51.824;4.682;2023-06-22T09:07:24;2.03;;;1.02;;
41115;SDS011;26861;51.824;4.682;2023-06-22T09:09:51;1.10;;;1.00;;
41115;SDS011;26861;51.824;4.682;2023-06-22T09:12:19;2.00;;;1.25;;
41115;SDS011;26861;51.824;4.682;2023-06-22T09:14:47;1.80;;;1.02;;
41115;SDS011;26861;51.824;4.682;2023-06-22T09:17:13;1.88;;;1.30;;
41115;SDS011;26861;51.824;4.682;2023-06-22T09:19:39;1.73;;;1.20;;
41115;SDS011;26861;51.824;4.682;2023-06-22T09:22:04;1.15;;;1.08;;
41115;SDS011;26861;51.824;4.682;2023-06-22T09:24:31;1.40;;;1.30;;
41115;SDS011;26861;51.824;4.682;2023-06-22T09:26:57;1.45;;;1.20;;
41115;SDS011;26861;51.824;4.682;2023-06-22T09:29:23;1.33;;;1.23;;
41115;SDS011;26861;51.824;4.682;2023-06-22T09:31:48;2.10;;;1.20;;
41115;SDS011;26861;51.824;4.682;2023-06-22T09:34:14;1.40;;;1.17;;
41115;SDS011;26861;51.824;4.682;2023-06-22T09:36:40;1.40;;;1.30;;
41115;SDS011;26861;51.824;4.682;2023-06-22T09:39:06;1.50;;;1.27;;
41115;SDS011;26861;51.824;4.682;2023-06-22T09:41:32;1.30;;;1.02;;
41115;SDS011;26861;51.824;4.682;2023-06-22T09:43:57;2.70;;;1.27;;
41115;SDS011;26861;51.824;4.682;2023-06-22T09:46:23;1.48;;;1.38;;
41115;SDS011;26861;51.824;4.682;2023-06-22T09:48:52;1.67;;;1.42;;
41115;SDS011;26861;51.824;4.682;2023-06-22T09:51:18;2.03;;;1.38;;
41115;SDS011;26861;51.824;4.682;2023-06-22T09:53:46;1.63;;;1.15;;
41115;SDS011;26861;51.824;4.682;2023-06-22T09:56:12;2.33;;;1.25;;
41115;SDS011;26861;51.824;4.682;2023-06-22T09:58:40;1.85;;;1.23;;
41115;SDS011;26861;51.824;4.682;2023-06-22T10:01:11;2.10;;;1.23;;
41115;SDS011;26861;51.824;4.682;2023-06-22T10:03:38;1.38;;;1.27;;
41115;SDS011;26861;51.824;4.682;2023-06-22T10:06:03;1.58;;;1.17;;
41115;SDS011;26861;51.824;4.682;2023-06-22T10:08:29;2.10;;;1.33;;
41115;SDS011;26861;51.824;4.682;2023-06-22T10:10:55;1.80;;;1.55;;
41115;SDS011;26861;51.824;4.682;2023-06-22T10:13:20;1.98;;;1.25;;
41115;SDS011;26861;51.824;4.682;2023-06-22T10:15:46;2.05;;;1.10;;
41115;SDS011;26861;51.824;4.682;2023-06-22T10:18:16;1.25;;;1.10;;
41115;SDS011;26861;51.824;4.682;2023-06-22T10:20:43;1.40;;;1.30;;
41115;SDS011;26861;51.824;4.682;2023-06-22T10:23:08;2.40;;;1.35;;
41115;SDS011;26861;51.824;4.682;2023-06-22T10:25:34;1.67;;;1.40;;
41115;SDS011;26861;51.824;4.682;2023-06-22T10:28:00;2.03;;;1.60;;
41115;SDS011;26861;51.824;4.682;2023-06-22T10:30:26;1.60;;;1.40;;
41115;SDS011;26861;51.824;4.682;2023-06-22T10:32:51;2.50;;;1.70;;
41115;SDS011;26861;51.824;4.682;2023-06-22T10:35:17;2.40;;;1.60;;
41115;SDS011;26861;51.824;4.682;2023-06-22T10:37:43;3.03;;;2.40;;
41115;SDS011;26861;51.824;4.682;2023-06-22T10:40:10;2.05;;;1.85;;
41115;SDS011;26861;51.824;4.682;2023-06-22T10:42:37;2.78;;;2.30;;
41115;SDS011;26861;51.824;4.682;2023-06-22T10:45:03;2.22;;;1.52;;
41115;SDS011;26861;51.824;4.682;2023-06-22T10:47:29;2.00;;;1.80;;
41115;SDS011;26861;51.824;4.682;2023-06-22T10:49:54;2.50;;;2.22;;
41115;SDS011;26861;51.824;4.682;2023-06-22T10:52:20;1.85;;;1.75;;
41115;SDS011;26861;51.824;4.682;2023-06-22T10:54:46;2.00;;;1.73;;
41115;SDS011;26861;51.824;4.682;2023-06-22T10:57:12;3.15;;;2.13;;
41115;SDS011;26861;51.824;4.682;2023-06-22T10:59:38;2.92;;;2.08;;
41115;SDS011;26861;51.824;4.682;2023-06-22T11:02:05;4.35;;;2.17;;
41115;SDS011;26861;51.824;4.682;2023-06-22T11:04:31;2.47;;;2.28;;
41115;SDS011;26861;51.824;4.682;2023-06-22T11:06:57;3.60;;;2.28;;
41115;SDS011;26861;51.824;4.682;2023-06-22T11:09:23;4.45;;;2.20;;
41115;SDS011;26861;51.824;4.682;2023-06-22T11:11:50;2.10;;;1.90;;
41115;SDS011;26861;51.824;4.682;2023-06-22T11:14:19;2.50;;;2.22;;
41115;SDS011;26861;51.824;4.682;2023-06-22T11:16:45;2.78;;;1.85;;
41115;SDS011;26861;51.824;4.682;2023-06-22T11:19:14;2.53;;;2.00;;
41115;SDS011;26861;51.824;4.682;2023-06-22T11:21:40;2.33;;;1.75;;
41115;SDS011;26861;51.824;4.682;2023-06-22T11:24:05;3.65;;;2.10;;
41115;SDS011;26861;51.824;4.682;2023-06-22T11:26:31;3.50;;;2.20;;
41115;SDS011;26861;51.824;4.682;2023-06-22T11:28:57;3.88;;;2.05;;
41115;SDS011;26861;51.824;4.682;2023-06-22T11:31:23;3.65;;;2.08;;
41115;SDS011;26861;51.824;4.682;2023-06-22T11:33:49;3.47;;;3.05;;
41115;SDS011;26861;51.824;4.682;2023-06-22T11:36:15;2.88;;;2.38;;
41115;SDS011;26861;51.824;4.682;2023-06-22T11:38:41;2.50;;;2.28;;
41115;SDS011;26861;51.824;4.682;2023-06-22T11:41:08;4.70;;;3.05;;
41115;SDS011;26861;51.824;4.682;2023-06-22T11:43:34;3.90;;;3.40;;
41115;SDS011;26861;51.824;4.682;2023-06-22T11:46:01;4.30;;;3.42;;
41115;SDS011;26861;51.824;4.682;2023-06-22T11:48:28;4.97;;;2.75;;
41115;SDS011;26861;51.824;4.682;2023-06-22T11:50:55;2.78;;;2.58;;
41115;SDS011;26861;51.824;4.682;2023-06-22T11:53:21;3.25;;;2.97;;
41115;SDS011;26861;51.824;4.682;2023-06-22T11:55:49;3.40;;;2.63;;
41115;SDS011;26861;51.824;4.682;2023-06-22T11:58:15;2.67;;;2.42;;
41115;SDS011;26861;51.824;4.682;2023-06-22T12:00:41;6.45;;;2.92;;
41115;SDS011;26861;51.824;4.682;2023-06-22T12:03:07;2.63;;;2.42;;
41115;SDS011;26861;51.824;4.682;2023-06-22T12:05:34;2.30;;;2.13;;
41115;SDS011;26861;51.824;4.682;2023-06-22T12:08:00;3.00;;;2.50;;
41115;SDS011;26861;51.824;4.682;2023-06-22T12:10:27;2.75;;;2.55;;
41115;SDS011;26861;51.824;4.682;2023-06-22T12:12:54;4.10;;;2.42;;
41115;SDS011;26861;51.824;4.682;2023-06-22T12:15:20;5.22;;;2.72;;
41115;SDS011;26861;51.824;4.682;2023-06-22T12:17:46;5.18;;;3.00;;
41115;SDS011;26861;51.824;4.682;2023-06-22T12:20:13;2.70;;;2.50;;
41115;SDS011;26861;51.824;4.682;2023-06-22T12:22:40;2.45;;;2.25;;
41115;SDS011;26861;51.824;4.682;2023-06-22T12:25:07;2.95;;;2.60;;
41115;SDS011;26861;51.824;4.682;2023-06-22T12:27:34;3.53;;;2.75;;
41115;SDS011;26861;51.824;4.682;2023-06-22T12:30:01;4.68;;;2.50;;
41115;SDS011;26861;51.824;4.682;2023-06-22T12:32:27;5.53;;;2.75;;
41115;SDS011;26861;51.824;4.682;2023-06-22T12:34:53;5.47;;;2.83;;
41115;SDS011;26861;51.824;4.682;2023-06-22T12:37:18;4.47;;;2.67;;
41115;SDS011;26861;51.824;4.682;2023-06-22T12:39:44;3.72;;;2.28;;
41115;SDS011;26861;51.824;4.682;2023-06-22T12:42:10;3.42;;;2.58;;
41115;SDS011;26861;51.824;4.682;2023-06-22T12:44:39;2.80;;;2.30;;
41115;SDS011;26861;51.824;4.682;2023-06-22T12:47:06;3.00;;;2.58;;
41115;SDS011;26861;51.824;4.682;2023-06-22T12:49:34;2.92;;;2.60;;
41115;SDS011;26861;51.824;4.682;2023-06-22T12:52:01;2.25;;;2.05;;
41115;SDS011;26861;51.824;4.682;2023-06-22T12:54:27;3.05;;;2.35;;
41115;SDS011;26861;51.824;4.682;2023-06-22T12:56:54;4.00;;;2.22;;
41115;SDS011;26861;51.824;4.682;2023-06-22T12:59:20;3.70;;;2.35;;
41115;SDS011;26861;51.824;4.682;2023-06-22T13:01:45;4.07;;;2.22;;
41115;SDS011;26861;51.824;4.682;2023-06-22T13:04:11;2.70;;;2.22;;
41115;SDS011;26861;51.824;4.682;2023-06-22T13:06:40;3.33;;;2.25;;
41115;SDS011;26861;51.824;4.682;2023-06-22T13:09:06;3.25;;;2.50;;
41115;SDS011;26861;51.824;4.682;2023-06-22T13:11:31;3.15;;;2.53;;
41115;SDS011;26861;51.824;4.682;2023-06-22T13:13:57;3.42;;;2.45;;
41115;SDS011;26861;51.824;4.682;2023-06-22T13:16:22;3.28;;;2.60;;
41115;SDS011;26861;51.824;4.682;2023-06-22T13:18:48;2.78;;;2.40;;
41115;SDS011;26861;51.824;4.682;2023-06-22T13:21:14;2.70;;;2.38;;
41115;SDS011;26861;51.824;4.682;2023-06-22T13:23:40;2.83;;;2.47;;
41115;SDS011;26861;51.824;4.682;2023-06-22T13:26:05;2.60;;;2.40;;
41115;SDS011;26861;51.824;4.682;2023-06-22T13:28:32;4.35;;;2.40;;
41115;SDS011;26861;51.824;4.682;2023-06-22T13:30:57;3.67;;;2.83;;
41115;SDS011;26861;51.824;4.682;2023-06-22T13:33:23;3.33;;;2.35;;
41115;SDS011;26861;51.824;4.682;2023-06-22T13:35:49;2.90;;;2.70;;
41115;SDS011;26861;51.824;4.682;2023-06-22T13:38:15;3.38;;;2.55;;
41115;SDS011;26861;51.824;4.682;2023-06-22T13:40:42;5.38;;;2.72;;
41115;SDS011;26861;51.824;4.682;2023-06-22T13:43:09;4.63;;;2.55;;
41115;SDS011;26861;51.824;4.682;2023-06-22T13:45:35;5.13;;;2.58;;
41115;SDS011;26861;51.824;4.682;2023-06-22T13:48:01;2.67;;;2.33;;
41115;SDS011;26861;51.824;4.682;2023-06-22T13:50:27;2.47;;;2.28;;
41115;SDS011;26861;51.824;4.682;2023-06-22T13:52:55;6.80;;;3.05;;
41115;SDS011;26861;51.824;4.682;2023-06-22T13:55:21;5.45;;;2.60;;
41115;SDS011;26861;51.824;4.682;2023-06-22T13:57:48;5.03;;;2.47;;
41115;SDS011;26861;51.824;4.682;2023-06-22T14:00:15;4.07;;;2.83;;
41115;SDS011;26861;51.824;4.682;2023-06-22T14:02:41;3.15;;;2.33;;
41115;SDS011;26861;51.824;4.682;2023-06-22T14:05:07;5.07;;;2.70;;
41115;SDS011;26861;51.824;4.682;2023-06-22T14:07:34;3.40;;;2.20;;
41115;SDS011;26861;51.824;4.682;2023-06-22T14:10:00;5.03;;;2.63;;
41115;SDS011;26861;51.824;4.682;2023-06-22T14:12:26;4.05;;;2.67;;
41115;SDS011;26861;51.824;4.682;2023-06-22T14:14:52;2.58;;;2.08;;
41115;SDS011;26861;51.824;4.682;2023-06-22T14:17:19;4.35;;;2.47;;
41115;SDS011;26861;51.824;4.682;2023-06-22T14:19:51;2.75;;;2.15;;
41115;SDS011;26861;51.824;4.682;2023-06-22T14:22:20;5.72;;;2.60;;
41115;SDS011;26861;51.824;4.682;2023-06-22T14:24:49;4.32;;;2.40;;
41115;SDS011;26861;51.824;4.682;2023-06-22T14:27:15;4.70;;;2.58;;
41115;SDS011;26861;51.824;4.682;2023-06-22T14:29:41;3.05;;;2.60;;
41115;SDS011;26861;51.824;4.682;2023-06-22T14:32:08;4.28;;;2.50;;
41115;SDS011;26861;51.824;4.682;2023-06-22T14:34:35;4.13;;;2.70;;
41115;SDS011;26861;51.824;4.682;2023-06-22T14:37:01;3.53;;;2.42;;
41115;SDS011;26861;51.824;4.682;2023-06-22T14:39:28;4.70;;;2.40;;
41115;SDS011;26861;51.824;4.682;2023-06-22T14:41:55;4.43;;;2.90;;
41115;SDS011;26861;51.824;4.682;2023-06-22T14:44:21;3.90;;;2.47;;
41115;SDS011;26861;51.824;4.682;2023-06-22T14:46:47;4.13;;;2.30;;
41115;SDS011;26861;51.824;4.682;2023-06-22T14:49:13;2.85;;;2.60;;
41115;SDS011;26861;51.824;4.682;2023-06-22T14:51:39;5.10;;;2.25;;
41115;SDS011;26861;51.824;4.682;2023-06-22T14:54:05;2.60;;;1.88;;